KOPF

Miami-Opa Locka Executive Airport

Miami, Florida, USA
METAR KOPF 181353Z 01005KT 10SM CLR 17/13 A3012 RMK AO2 SLP201 T01670128
Observed Flight Rules
Dec-18 @ 13:53 UTC (15 minutes ago) Visual Flight Rules
Wind Visibility Clouds
10° at 5 knots 10 miles
  • Clear skies
Temperatures Readings
Current 17°C / 63°F
Dewpoint 13°C / 55°F
Humidity 77%
Altimeter 30.12" Hg
Pressure 1020.1 hPa
Elevation 16
METAR KOPF 181353Z 01005KT 10SM CLR 17/13 A3012 RMK AO2 SLP201 T01670128
Observed Flight Rules
Dec-18 @ 13:53 UTC
(15 minutes ago)
VFR
Wind Visibility
10° at 5 knots 10 miles
Clouds
  • Clear skies
Temperature Dewpoint
17°C / 63°F 13°C / 55°F
Humidity Altimeter Pressure
77% 30.12" Hg 1020.1 hPa